Time;durP1;ratioP1;P1;durP2;ratioP2;P2;SDS_P1;SDS_P2;PMS_P1;PMS_P2;Temp;Humidity;BMP_temperature;BMP_pressure;BME280_temperature;BME280_humidity;BME280_pressure;Samples;Min_cycle;Max_cycle;Signal;HPM_P1;HPM_P2
2023/04/28 00:04:16;;;;;;;4.63;1.55;;;;;;;;;;20838399;28;20568;-67
2023/04/28 00:14:18;;;;;;;6.15;1.58;;;;;;;;;;20837722;28;20052;-68
2023/04/28 00:24:20;;;;;;;5.57;1.63;;;;;;;;;;20839922;28;20498;-68
2023/04/28 00:34:21;;;;;;;3.78;1.25;;;;;;;;;;20834621;28;20045;-68
2023/04/28 00:44:23;;;;;;;4.18;1.90;;;;;;;;;;20835005;28;20041;-67
2023/04/28 00:54:25;;;;;;;6.95;1.90;;;;;;;;;;20833217;28;20091;-67
2023/04/28 01:04:28;;;;;;;5.70;1.30;;;;;;;;;;20832330;28;20049;-68
2023/04/28 01:14:30;;;;;;;7.50;1.17;;;;;;;;;;20831853;28;20053;-68
2023/04/28 01:24:32;;;;;;;8.27;1.60;;;;;;;;;;20832185;28;20049;-68
2023/04/28 01:34:34;;;;;;;8.57;1.17;;;;;;;;;;20832026;28;20064;-68
2023/04/28 01:44:37;;;;;;;3.78;1.50;;;;;;;;;;20830299;28;20049;-67
2023/04/28 01:54:39;;;;;;;5.25;1.73;;;;;;;;;;20839520;28;20056;-68
2023/04/28 02:04:40;;;;;;;6.30;1.23;;;;;;;;;;20847394;28;20054;-68
2023/04/28 02:14:42;;;;;;;4.80;1.33;;;;;;;;;;20846793;28;20064;-68
2023/04/28 02:24:44;;;;;;;6.25;1.67;;;;;;;;;;20844280;28;20053;-67
2023/04/28 02:34:46;;;;;;;5.05;1.40;;;;;;;;;;20845259;28;20054;-66
2023/04/28 02:44:48;;;;;;;5.97;1.90;;;;;;;;;;20843476;28;20046;-68
2023/04/28 02:54:53;;;;;;;5.88;1.80;;;;;;;;;;20842779;28;20084;-68
2023/04/28 03:04:55;;;;;;;7.63;1.30;;;;;;;;;;20841931;28;20545;-68
2023/04/28 03:14:57;;;;;;;4.20;1.20;;;;;;;;;;20842130;28;20590;-66
2023/04/28 03:24:58;;;;;;;6.00;1.60;;;;;;;;;;20841422;28;20057;-68
2023/04/28 03:35:00;;;;;;;4.78;1.30;;;;;;;;;;20839563;28;20045;-68
2023/04/28 03:45:02;;;;;;;5.82;1.48;;;;;;;;;;20840053;28;20147;-68
2023/04/28 03:55:05;;;;;;;5.82;1.73;;;;;;;;;;20839234;28;20518;-67
2023/04/28 04:05:07;;;;;;;4.80;1.50;;;;;;;;;;20835910;28;20041;-68
2023/04/28 04:15:09;;;;;;;4.30;1.90;;;;;;;;;;20835762;28;20056;-71
2023/04/28 04:25:11;;;;;;;5.70;1.25;;;;;;;;;;20834850;28;20072;-70
2023/04/28 04:35:13;;;;;;;2.95;1.33;;;;;;;;;;20834248;28;20107;-70
2023/04/28 04:45:15;;;;;;;4.95;1.60;;;;;;;;;;20833785;28;20099;-70
2023/04/28 04:55:16;;;;;;;8.70;1.80;;;;;;;;;;20834523;28;20049;-70
2023/04/28 05:05:18;;;;;;;4.47;1.63;;;;;;;;;;20833449;28;20479;-70
2023/04/28 05:15:20;;;;;;;12.40;2.50;;;;;;;;;;20832105;28;20049;-70
2023/04/28 05:25:22;;;;;;;6.85;2.08;;;;;;;;;;20830831;28;20148;-70
2023/04/28 05:35:24;;;;;;;5.13;2.33;;;;;;;;;;20831858;28;20049;-71
2023/04/28 05:45:26;;;;;;;7.72;2.97;;;;;;;;;;20830396;28;20045;-70
2023/04/28 05:55:28;;;;;;;13.05;3.08;;;;;;;;;;20829131;28;20049;-69
2023/04/28 06:05:29;;;;;;;5.43;1.92;;;;;;;;;;20829427;28;20046;-70
2023/04/28 06:15:32;;;;;;;8.80;2.35;;;;;;;;;;20830344;28;20424;-70
2023/04/28 06:25:35;;;;;;;8.32;1.92;;;;;;;;;;20831091;28;20060;-71
2023/04/28 06:35:37;;;;;;;5.10;1.90;;;;;;;;;;20834688;28;20084;-70
2023/04/28 06:45:40;;;;;;;11.32;2.92;;;;;;;;;;20844413;28;20053;-71
2023/04/28 06:55:42;;;;;;;8.02;2.42;;;;;;;;;;20843847;28;20081;-70
2023/04/28 07:05:45;;;;;;;7.18;1.95;;;;;;;;;;20842606;28;20471;-71
2023/04/28 07:15:47;;;;;;;10.23;2.08;;;;;;;;;;20841910;28;20049;-70
2023/04/28 07:25:48;;;;;;;8.60;2.33;;;;;;;;;;20839940;28;20063;-71
2023/04/28 07:35:51;;;;;;;11.50;2.58;;;;;;;;;;20839824;28;20056;-69
2023/04/28 07:45:53;;;;;;;10.55;2.05;;;;;;;;;;20839136;28;20128;-70
2023/04/28 07:55:55;;;;;;;9.45;2.35;;;;;;;;;;20838121;28;20063;-70
2023/04/28 08:05:58;;;;;;;11.05;2.42;;;;;;;;;;20837753;28;20042;-70
2023/04/28 08:16:00;;;;;;;13.13;3.10;;;;;;;;;;20837630;28;20055;-70
2023/04/28 08:26:02;;;;;;;9.73;2.65;;;;;;;;;;20836476;28;20577;-70
2023/04/28 08:36:04;;;;;;;8.90;2.65;;;;;;;;;;20835935;28;20048;-69
2023/04/28 08:46:06;;;;;;;11.43;2.30;;;;;;;;;;20835013;28;20132;-70
2023/04/28 08:56:12;;;;;;;10.65;3.20;;;;;;;;;;20833137;28;20105;-69
2023/04/28 09:06:14;;;;;;;9.52;2.17;;;;;;;;;;20832941;28;20544;-70
2023/04/28 09:16:15;;;;;;;11.25;2.53;;;;;;;;;;20832069;28;20052;-70
2023/04/28 09:26:18;;;;;;;7.55;1.55;;;;;;;;;;20832682;28;20045;-70
2023/04/28 09:36:28;;;;;;;332.25;29.77;;;;;;;;;;20832508;28;20049;-66
2023/04/28 09:46:30;;;;;;;49.78;26.35;;;;;;;;;;20879467;28;20049;-67
2023/04/28 09:56:32;;;;;;;6.05;2.88;;;;;;;;;;20888525;28;20045;-63
2023/04/28 10:06:38;;;;;;;13.70;2.55;;;;;;;;;;20843493;28;20148;-64
2023/04/28 10:16:39;;;;;;;9.70;2.90;;;;;;;;;;20879739;28;20094;-66
2023/04/28 10:27:00;;;;;;;9.82;2.17;;;;;;;;;;20888929;28;20207;-67
2023/04/28 10:37:01;;;;;;;10.05;2.65;;;;;;;;;;20871523;28;20057;-65
2023/04/28 10:47:08;;;;;;;11.93;2.65;;;;;;;;;;20899463;28;20490;-65
2023/04/28 10:57:16;;;;;;;9.57;2.17;;;;;;;;;;20878719;28;20411;-69
2023/04/28 11:07:18;;;;;;;6.90;2.47;;;;;;;;;;20869267;28;20045;-68
2023/04/28 11:17:35;;;;;;;11.85;2.38;;;;;;;;;;20902959;28;20053;-65
2023/04/28 11:27:36;;;;;;;5.93;2.33;;;;;;;;;;20858619;28;20057;-66
2023/04/28 11:37:38;;;;;;;15.50;2.53;;;;;;;;;;20847480;28;20061;-68
2023/04/28 11:47:40;;;;;;;7.97;2.22;;;;;;;;;;20837718;28;20483;-69
2023/04/28 11:57:42;;;;;;;10.90;5.00;;;;;;;;;;20837171;28;20144;-69
2023/04/28 12:07:45;;;;;;;9.07;2.80;;;;;;;;;;20837478;28;20041;-70
2023/04/28 12:17:47;;;;;;;4.70;2.05;;;;;;;;;;20837539;28;20544;-68
2023/04/28 12:28:00;;;;;;;18.05;6.47;;;;;;;;;;20836313;28;20469;-67
2023/04/28 12:38:01;;;;;;;6.72;2.40;;;;;;;;;;20834851;28;20053;-67
2023/04/28 12:48:03;;;;;;;8.93;2.03;;;;;;;;;;20833251;28;20064;-68
2023/04/28 12:58:05;;;;;;;5.10;1.77;;;;;;;;;;20832448;28;20057;-67
2023/04/28 13:08:07;;;;;;;7.38;1.75;;;;;;;;;;20833305;28;20128;-68
2023/04/28 13:18:08;;;;;;;2.97;1.30;;;;;;;;;;20833010;28;20446;-68
2023/04/28 13:28:11;;;;;;;5.05;1.10;;;;;;;;;;20831613;28;20049;-68
2023/04/28 13:38:13;;;;;;;2.95;1.30;;;;;;;;;;20832232;28;20056;-68
2023/04/28 13:48:15;;;;;;;6.97;1.10;;;;;;;;;;20839205;28;20402;-67
2023/04/28 13:58:17;;;;;;;5.53;1.35;;;;;;;;;;20858627;28;20053;-68
2023/04/28 14:08:19;;;;;;;7.10;1.50;;;;;;;;;;20857882;28;20088;-67
2023/04/28 14:18:21;;;;;;;5.07;1.65;;;;;;;;;;20856677;28;20080;-68
2023/04/28 14:28:23;;;;;;;6.63;1.55;;;;;;;;;;20855410;28;20057;-68
2023/04/28 14:38:25;;;;;;;6.47;1.30;;;;;;;;;;20855403;28;20387;-67
2023/04/28 14:48:26;;;;;;;5.53;1.50;;;;;;;;;;20855561;28;20449;-68
2023/04/28 14:58:28;;;;;;;4.95;1.85;;;;;;;;;;20852069;28;20053;-70
2023/04/28 15:08:30;;;;;;;6.55;1.67;;;;;;;;;;20838888;28;20050;-68
2023/04/28 15:18:32;;;;;;;7.45;1.75;;;;;;;;;;20840260;28;20053;-67
2023/04/28 15:28:34;;;;;;;4.65;2.08;;;;;;;;;;20835784;28;20061;-67
2023/04/28 15:38:37;;;;;;;5.28;1.42;;;;;;;;;;20831407;28;22297;-70
2023/04/28 15:48:38;;;;;;;7.50;2.30;;;;;;;;;;20828930;28;20046;-66
2023/04/28 15:58:40;;;;;;;9.65;2.25;;;;;;;;;;20826072;28;20053;-68
2023/04/28 16:08:42;;;;;;;5.88;2.03;;;;;;;;;;20827769;28;20102;-71
2023/04/28 16:18:44;;;;;;;6.70;2.50;;;;;;;;;;20836804;28;20049;-70
2023/04/28 16:28:46;;;;;;;6.20;2.17;;;;;;;;;;20836154;28;20455;-71
2023/04/28 16:38:47;;;;;;;4.88;1.45;;;;;;;;;;20833619;28;20049;-67
2023/04/28 16:48:49;;;;;;;3.67;1.30;;;;;;;;;;20832900;28;20047;-73
2023/04/28 16:58:51;;;;;;;3.75;1.77;;;;;;;;;;20833651;28;20057;-71
2023/04/28 17:08:53;;;;;;;8.63;2.15;;;;;;;;;;20832576;28;20391;-67
2023/04/28 17:18:55;;;;;;;6.68;1.92;;;;;;;;;;20834259;28;20505;-67
2023/04/28 17:28:57;;;;;;;4.22;1.48;;;;;;;;;;20828956;28;20050;-66
2023/04/28 17:38:59;;;;;;;6.47;1.73;;;;;;;;;;20811987;28;20048;-70
2023/04/28 17:49:01;;;;;;;9.55;3.50;;;;;;;;;;20824451;28;20192;-72
2023/04/28 17:59:03;;;;;;;4.25;1.60;;;;;;;;;;20826823;28;20042;-70
2023/04/28 18:09:05;;;;;;;4.80;1.65;;;;;;;;;;20827246;28;20037;-74
2023/04/28 18:19:07;;;;;;;3.20;1.75;;;;;;;;;;20825106;28;20053;-72
2023/04/28 18:29:08;;;;;;;7.47;2.10;;;;;;;;;;20826049;28;20049;-69
2023/04/28 18:39:11;;;;;;;10.70;2.10;;;;;;;;;;20832889;28;20046;-64
2023/04/28 18:49:13;;;;;;;5.80;2.72;;;;;;;;;;20834928;28;20110;-67
2023/04/28 18:59:15;;;;;;;5.80;2.70;;;;;;;;;;20834225;28;20059;-63
2023/04/28 19:09:16;;;;;;;6.90;2.08;;;;;;;;;;20837457;28;20050;-62
2023/04/28 19:19:18;;;;;;;5.93;2.35;;;;;;;;;;20841185;28;20055;-61
2023/04/28 19:29:20;;;;;;;6.93;2.47;;;;;;;;;;20838423;28;20117;-62
2023/04/28 19:39:22;;;;;;;7.03;3.72;;;;;;;;;;20837761;28;20045;-61
2023/04/28 19:49:24;;;;;;;7.20;2.30;;;;;;;;;;20836621;28;20090;-61
2023/04/28 19:59:25;;;;;;;9.82;4.00;;;;;;;;;;20837385;28;20049;-61
2023/04/28 20:09:27;;;;;;;9.23;2.80;;;;;;;;;;20836687;28;20049;-62
2023/04/28 20:19:29;;;;;;;9.13;3.08;;;;;;;;;;20834642;28;20049;-61
2023/04/28 20:29:33;;;;;;;7.78;4.10;;;;;;;;;;20834071;28;20164;-62
2023/04/28 20:39:35;;;;;;;3.83;1.77;;;;;;;;;;20834458;28;20512;-60
2023/04/28 20:49:37;;;;;;;6.75;2.22;;;;;;;;;;20834319;28;20053;-61
2023/04/28 20:59:39;;;;;;;3.95;2.40;;;;;;;;;;20832435;28;20100;-61
2023/04/28 21:09:41;;;;;;;5.95;1.85;;;;;;;;;;20831804;28;20053;-62
2023/04/28 21:19:42;;;;;;;6.07;2.05;;;;;;;;;;20831851;28;20060;-63
2023/04/28 21:29:44;;;;;;;8.07;2.53;;;;;;;;;;20831485;28;20061;-62
2023/04/28 21:39:46;;;;;;;13.20;8.18;;;;;;;;;;20830335;28;20061;-62
2023/04/28 21:49:48;;;;;;;8.82;4.53;;;;;;;;;;20831133;28;20476;-61
2023/04/28 21:59:49;;;;;;;7.53;4.03;;;;;;;;;;20829566;28;20046;-61
2023/04/28 22:09:51;;;;;;;8.07;3.88;;;;;;;;;;20834429;28;20095;-62
2023/04/28 22:19:53;;;;;;;10.02;4.35;;;;;;;;;;20845469;28;20060;-61
2023/04/28 22:29:57;;;;;;;11.60;4.22;;;;;;;;;;20844470;28;20060;-61
2023/04/28 22:39:59;;;;;;;13.02;5.97;;;;;;;;;;20845520;28;20053;-61
2023/04/28 22:50:05;;;;;;;11.43;4.70;;;;;;;;;;20843201;28;20049;-60
2023/04/28 23:00:07;;;;;;;10.57;5.40;;;;;;;;;;20844097;28;20045;-61
2023/04/28 23:10:09;;;;;;;8.25;4.47;;;;;;;;;;20843163;28;20428;-61
2023/04/28 23:20:11;;;;;;;7.55;4.60;;;;;;;;;;20839668;28;20064;-61
2023/04/28 23:30:13;;;;;;;8.07;2.60;;;;;;;;;;20840744;28;20065;-61
2023/04/28 23:40:15;;;;;;;6.38;3.13;;;;;;;;;;20840869;28;20049;-62
2023/04/28 23:50:17;;;;;;;6.78;3.20;;;;;;;;;;20839424;28;20516;-61
